createdAt,value
2023-05-12T00:00:57.759Z,95550.56
2023-05-12T00:01:59.367Z,95548.81
2023-05-12T00:03:03.782Z,95538.16
2023-05-12T00:04:05.701Z,95547.75
2023-05-12T00:05:07.770Z,95554.91
2023-05-12T00:06:09.421Z,95534.75
2023-05-12T00:07:11.009Z,95546.03
2023-05-12T00:08:12.676Z,95541.88
2023-05-12T00:09:14.265Z,95545.09
2023-05-12T00:10:16.001Z,95546.22
2023-05-12T00:11:17.651Z,95548.63
2023-05-12T00:12:19.330Z,95543.75
2023-05-12T00:13:23.667Z,95535.28
2023-05-12T00:14:25.454Z,95541.56
2023-05-12T00:15:27.026Z,95536.81
2023-05-12T00:16:28.729Z,95534.16
2023-05-12T00:17:30.459Z,95537.63
2023-05-12T00:18:32.106Z,95541.63
2023-05-12T00:19:34.625Z,95534.38
2023-05-12T00:20:36.267Z,95540.03
2023-05-12T00:21:37.934Z,95526.59
2023-05-12T00:22:40.107Z,95534.44
2023-05-12T00:23:41.944Z,95528.22
2023-05-12T00:24:43.597Z,95532.09
2023-05-12T00:25:45.189Z,95531.50
2023-05-12T00:26:46.781Z,95528.44
2023-05-12T00:27:48.447Z,95527.97
2023-05-12T00:28:50.177Z,95526.84
2023-05-12T00:29:52.035Z,95518.31
2023-05-12T00:30:53.623Z,95530.97
2023-05-12T00:31:56.104Z,95522.75
2023-05-12T00:32:58.764Z,95523.56
2023-05-12T00:34:00.318Z,95523.44
2023-05-12T00:35:01.876Z,95527.91
2023-05-12T00:36:04.132Z,95527.75
2023-05-12T00:37:06.425Z,95526.19
2023-05-12T00:38:08.057Z,95521.72
2023-05-12T00:39:10.097Z,95525.72
2023-05-12T00:40:12.081Z,95524.78
2023-05-12T00:41:13.759Z,95522.38
2023-05-12T00:42:15.367Z,95522.84
2023-05-12T00:43:17.025Z,95519.31
2023-05-12T00:44:18.694Z,95524.59
2023-05-12T00:45:21.841Z,95524.78
2023-05-12T00:46:23.518Z,95528.44
2023-05-12T00:47:25.219Z,95513.84
2023-05-12T00:48:27.259Z,95519.31
2023-05-12T00:49:28.858Z,95516.09
2023-05-12T00:50:30.570Z,95517.94
2023-05-12T00:51:32.325Z,95518.66
2023-05-12T00:52:34.242Z,95516.19
2023-05-12T00:53:48.183Z,95510.38
2023-05-12T00:54:50.655Z,95509.13
2023-05-12T00:55:53.618Z,95514.47
2023-05-12T00:56:55.508Z,95512.31
2023-05-12T00:57:58.184Z,95501.59
2023-05-12T00:59:01.320Z,95516.53
2023-05-12T01:00:04.872Z,95513.59
2023-05-12T01:01:07.006Z,95509.25
2023-05-12T01:02:08.977Z,95501.84
2023-05-12T01:03:11.131Z,95500.16
2023-05-12T01:04:12.768Z,95511.19
2023-05-12T01:05:16.006Z,95509.25
2023-05-12T01:06:18.476Z,95511.06
2023-05-12T01:07:22.513Z,95509.81
2023-05-12T01:08:24.972Z,95514.47
2023-05-12T01:09:26.984Z,95510.28
2023-05-12T01:10:29.652Z,95510.38
2023-05-12T01:11:31.709Z,95508.78
2023-05-12T01:12:33.621Z,95511.81
2023-05-12T01:13:37.257Z,95506.75
2023-05-12T01:14:39.383Z,95511.41
2023-05-12T01:15:44.274Z,95507.72
2023-05-12T01:16:49.505Z,95507.41
2023-05-12T01:17:55.305Z,95506.34
2023-05-12T01:18:57.216Z,95506.94
2023-05-12T01:20:00.801Z,95499.22
2023-05-12T01:21:03.094Z,95505.34
2023-05-12T01:22:05.152Z,95508.88
2023-05-12T01:23:06.874Z,95503.47
2023-05-12T01:24:09.291Z,95510.34
2023-05-12T01:25:12.179Z,95512.13
2023-05-12T01:26:14.228Z,95514.22
2023-05-12T01:27:17.361Z,95506.13
2023-05-12T01:28:19.570Z,95505.53
2023-05-12T01:29:22.222Z,95505.66
2023-05-12T01:30:24.947Z,95514.53
2023-05-12T01:31:27.717Z,95507.34
2023-05-12T01:32:30.452Z,95506.34
2023-05-12T01:33:33.180Z,95507.81
2023-05-12T01:34:36.024Z,95506.09
2023-05-12T01:35:37.670Z,95505.72
2023-05-12T01:36:39.264Z,95509.81
2023-05-12T01:37:40.837Z,95498.34
2023-05-12T01:38:43.149Z,95510.88
2023-05-12T01:39:45.036Z,95511.66
2023-05-12T01:40:52.315Z,95508.28
2023-05-12T01:41:54.284Z,95512.63
2023-05-12T01:42:56.321Z,95513.75
2023-05-12T01:43:58.534Z,95519.00
2023-05-12T01:45:00.988Z,95507.81
2023-05-12T01:46:03.976Z,95512.13
2023-05-12T01:47:09.794Z,95516.59
2023-05-12T01:48:12.176Z,95511.75
2023-05-12T01:49:13.719Z,95510.59
2023-05-12T01:50:15.599Z,95511.34
2023-05-12T01:51:17.426Z,95511.81
2023-05-12T01:52:20.423Z,95514.88
2023-05-12T01:53:21.898Z,95512.06
2023-05-12T01:54:23.447Z,95516.94
2023-05-12T01:55:25.097Z,95515.38
2023-05-12T01:56:30.156Z,95519.13
2023-05-12T01:57:32.760Z,95517.53
2023-05-12T01:58:35.490Z,95519.59
2023-05-12T01:59:37.488Z,95524.44
2023-05-12T02:00:40.645Z,95514.22
2023-05-12T02:01:48.358Z,95519.22
2023-05-12T02:02:55.770Z,95525.81
2023-05-12T02:03:57.881Z,95523.78
2023-05-12T02:05:00.727Z,95520.91
2023-05-12T02:06:02.404Z,95520.25
2023-05-12T02:07:04.346Z,95518.34
2023-05-12T02:08:07.196Z,95518.13
2023-05-12T02:09:08.877Z,95519.13
2023-05-12T02:10:10.511Z,95525.97
2023-05-12T02:11:12.173Z,95521.66
2023-05-12T02:12:14.078Z,95517.44
2023-05-12T02:13:15.694Z,95515.38
2023-05-12T02:14:17.443Z,95516.56
2023-05-12T02:15:19.279Z,95522.97
2023-05-12T02:16:21.892Z,95511.31
2023-05-12T02:17:25.107Z,95524.84
2023-05-12T02:18:26.878Z,95514.88
2023-05-12T02:19:28.529Z,95524.31
2023-05-12T02:20:32.505Z,95520.56
2023-05-12T02:21:34.118Z,95515.66
2023-05-12T02:22:35.724Z,95512.94
2023-05-12T02:23:37.431Z,95517.25
2023-05-12T02:24:39.060Z,95516.47
2023-05-12T02:25:42.099Z,95514.16
2023-05-12T02:26:44.066Z,95514.25
2023-05-12T02:27:46.393Z,95520.44
2023-05-12T02:28:48.034Z,95517.38
2023-05-12T02:29:50.284Z,95512.06
2023-05-12T02:30:53.176Z,95512.97
2023-05-12T02:31:54.985Z,95516.81
2023-05-12T02:32:56.728Z,95519.13
2023-05-12T02:33:58.868Z,95512.25
2023-05-12T02:35:01.037Z,95512.56
2023-05-12T02:36:03.069Z,95518.84
2023-05-12T02:37:04.871Z,95513.97
2023-05-12T02:38:06.484Z,95516.56
2023-05-12T02:39:08.088Z,95516.56
2023-05-12T02:40:10.721Z,95509.78
2023-05-12T02:41:14.211Z,95514.44
2023-05-12T02:42:16.166Z,95511.03
2023-05-12T02:43:17.844Z,95511.34
2023-05-12T02:44:22.306Z,95503.84
2023-05-12T02:45:24.456Z,95508.50
2023-05-12T02:46:26.250Z,95518.66
2023-05-12T02:47:31.384Z,95508.03
2023-05-12T02:48:33.067Z,95511.56
2023-05-12T02:49:34.665Z,95513.97
2023-05-12T02:50:36.407Z,95510.31
2023-05-12T02:51:38.027Z,95512.06
2023-05-12T02:52:39.637Z,95511.56
2023-05-12T02:53:41.429Z,95502.09
2023-05-12T02:54:43.017Z,95507.00
2023-05-12T02:55:44.616Z,95510.78
2023-05-12T02:56:46.297Z,95511.34
2023-05-12T02:57:47.996Z,95510.13
2023-05-12T02:58:49.636Z,95509.00
2023-05-12T02:59:51.262Z,95508.03
2023-05-12T03:01:03.096Z,95509.00
2023-05-12T03:02:09.003Z,95505.31
2023-05-12T03:03:10.940Z,95504.03
2023-05-12T03:04:12.597Z,95509.31
2023-05-12T03:05:14.479Z,95512.06
2023-05-12T03:06:16.049Z,95508.03
2023-05-12T03:07:17.674Z,95511.31
2023-05-12T03:08:19.358Z,95503.25
2023-05-12T03:09:20.998Z,95503.47
2023-05-12T03:10:22.905Z,95505.25
2023-05-12T03:11:24.763Z,95511.19
2023-05-12T03:12:26.410Z,95512.47
2023-05-12T03:13:27.992Z,95508.78
2023-05-12T03:14:29.788Z,95504.59
2023-05-12T03:15:31.368Z,95502.19
2023-05-12T03:16:33.213Z,95514.06
2023-05-12T03:17:36.068Z,95499.94
2023-05-12T03:18:37.686Z,95507.78
2023-05-12T03:19:40.797Z,95508.13
2023-05-12T03:20:42.414Z,95510.38
2023-05-12T03:21:44.067Z,95511.53
2023-05-12T03:22:46.133Z,95510.72
2023-05-12T03:23:47.812Z,95506.53
2023-05-12T03:24:49.449Z,95513.13
2023-05-12T03:25:51.621Z,95509.91
2023-05-12T03:26:53.365Z,95509.91
2023-05-12T03:27:55.168Z,95513.13
2023-05-12T03:28:56.892Z,95514.06
2023-05-12T03:30:00.736Z,95514.72
2023-05-12T03:31:02.495Z,95519.84
2023-05-12T03:32:05.301Z,95518.41
2023-05-12T03:33:06.986Z,95516.97
2023-05-12T03:34:08.795Z,95509.06
2023-05-12T03:35:10.657Z,95515.53
2023-05-12T03:36:12.345Z,95509.59
2023-05-12T03:37:13.926Z,95506.06
2023-05-12T03:38:15.529Z,95504.44
2023-05-12T03:39:17.163Z,95512.22
2023-05-12T03:40:19.247Z,95507.19
2023-05-12T03:41:22.120Z,95508.78
2023-05-12T03:42:26.939Z,95504.44
2023-05-12T03:43:28.503Z,95506.53
2023-05-12T03:44:30.189Z,95506.44
2023-05-12T03:45:32.110Z,95511.91
2023-05-12T03:46:33.898Z,95508.69
2023-05-12T03:47:36.159Z,95515.91
2023-05-12T03:48:37.955Z,95506.69
2023-05-12T03:49:39.568Z,95517.69
2023-05-12T03:50:41.502Z,95508.59
2023-05-12T03:51:43.097Z,95508.59
2023-05-12T03:52:44.751Z,95510.19
2023-05-12T03:53:47.713Z,95509.00
2023-05-12T03:54:49.434Z,95508.63
2023-05-12T03:55:51.160Z,95503.63
2023-05-12T03:56:53.593Z,95509.09
2023-05-12T03:57:55.117Z,95510.03
2023-05-12T03:58:57.095Z,95512.28
2023-05-12T03:59:58.916Z,95511.16
2023-05-12T04:01:01.748Z,95504.75
2023-05-12T04:02:04.269Z,95500.31
2023-05-12T04:03:06.009Z,95508.84
2023-05-12T04:04:08.284Z,95507.50
2023-05-12T04:05:11.304Z,95508.19
2023-05-12T04:06:12.897Z,95506.59
2023-05-12T04:07:14.497Z,95511.41
2023-05-12T04:08:16.283Z,95509.22
2023-05-12T04:09:17.840Z,95511.41
2023-05-12T04:10:19.613Z,95508.00
2023-05-12T04:11:21.337Z,95503.97
2023-05-12T04:12:23.448Z,95503.63
2023-05-12T04:13:25.915Z,95500.44
2023-05-12T04:14:39.196Z,95505.19
2023-05-12T04:15:44.278Z,95501.41
2023-05-12T04:16:46.015Z,95504.19
2023-05-12T04:17:47.875Z,95509.81
2023-05-12T04:18:49.697Z,95510.56
2023-05-12T04:19:52.692Z,95508.59
2023-05-12T04:20:55.172Z,95504.47
2023-05-12T04:21:57.105Z,95507.16
2023-05-12T04:22:58.913Z,95509.19
2023-05-12T04:24:00.905Z,95511.75
2023-05-12T04:25:06.478Z,95515.69
2023-05-12T04:26:08.129Z,95518.38
2023-05-12T04:27:09.952Z,95518.81
2023-05-12T04:28:12.291Z,95515.81
2023-05-12T04:29:14.624Z,95513.84
2023-05-12T04:30:16.916Z,95518.25
2023-05-12T04:31:19.272Z,95511.47
2023-05-12T04:32:21.378Z,95520.00
2023-05-12T04:33:23.014Z,95517.41
2023-05-12T04:34:24.636Z,95525.69
2023-05-12T04:35:26.500Z,95522.00
2023-05-12T04:36:28.040Z,95517.72
2023-05-12T04:37:29.637Z,95525.50
2023-05-12T04:38:31.257Z,95521.06
2023-05-12T04:39:32.889Z,95528.19
2023-05-12T04:40:35.193Z,95525.19
2023-05-12T04:41:37.819Z,95527.00
2023-05-12T04:42:39.834Z,95522.94
2023-05-12T04:44:48.161Z,95522.88
2023-05-12T04:45:50.917Z,95525.50
2023-05-12T04:46:56.084Z,95525.97
2023-05-12T04:47:57.694Z,95525.41
2023-05-12T04:48:59.346Z,95520.28
2023-05-12T04:50:01.141Z,95523.38
2023-05-12T04:51:02.742Z,95523.38
2023-05-12T04:52:05.501Z,95527.00
2023-05-12T04:53:07.093Z,95524.84
2023-05-12T04:54:11.422Z,95533.63
2023-05-12T04:55:13.349Z,95532.25
2023-05-12T04:56:15.183Z,95529.50
2023-05-12T04:57:17.214Z,95534.38
2023-05-12T04:58:19.036Z,95533.97
2023-05-12T04:59:21.886Z,95531.50
2023-05-12T05:00:25.263Z,95537.34
2023-05-12T05:01:27.043Z,95534.84
2023-05-12T05:02:28.897Z,95537.81
2023-05-12T05:03:30.929Z,95537.81
2023-05-12T05:04:32.639Z,95542.72
2023-05-12T05:05:34.269Z,95543.72
2023-05-12T05:06:36.273Z,95537.72
2023-05-12T05:07:38.386Z,95534.97
2023-05-12T05:08:40.399Z,95539.50
2023-05-12T05:09:42.092Z,95539.63
2023-05-12T05:10:43.685Z,95544.25
2023-05-12T05:11:45.354Z,95547.31
2023-05-12T05:12:47.205Z,95537.94
2023-05-12T05:13:48.935Z,95549.44
2023-05-12T05:14:50.638Z,95543.28
2023-05-12T05:15:53.350Z,95541.81
2023-05-12T05:16:56.071Z,95542.25
2023-05-12T05:18:00.004Z,95541.22
2023-05-12T05:19:06.477Z,95550.34
2023-05-12T05:20:12.347Z,95542.94
2023-05-12T05:21:16.658Z,95543.28
2023-05-12T05:22:18.756Z,95546.84
2023-05-12T05:23:21.013Z,95545.31
2023-05-12T05:24:22.663Z,95549.53
2023-05-12T05:25:24.271Z,95544.19
2023-05-12T05:26:25.945Z,95545.41
2023-05-12T05:27:27.798Z,95544.53
2023-05-12T05:28:29.449Z,95552.25
2023-05-12T05:29:31.068Z,95550.72
2023-05-12T05:30:32.699Z,95544.31
2023-05-12T05:31:36.311Z,95553.28
2023-05-12T05:32:40.165Z,95554.66
2023-05-12T05:33:41.934Z,95549.53
2023-05-12T05:34:43.581Z,95552.97
2023-05-12T05:35:46.781Z,95555.06
2023-05-12T05:36:48.439Z,95558.59
2023-05-12T05:37:53.660Z,95557.34
2023-05-12T05:38:56.506Z,95562.88
2023-05-12T05:39:58.186Z,95555.81
2023-05-12T05:40:59.761Z,95552.50
2023-05-12T05:42:02.377Z,95554.00
2023-05-12T05:43:04.712Z,95556.13
2023-05-12T05:44:07.471Z,95552.59
2023-05-12T05:45:09.653Z,95555.03
2023-05-12T05:46:11.338Z,95550.94
2023-05-12T05:47:13.347Z,95553.78
2023-05-12T05:48:15.176Z,95551.59
2023-05-12T05:49:17.128Z,95548.88
2023-05-12T05:50:18.776Z,95554.00
2023-05-12T05:51:20.640Z,95553.78
2023-05-12T05:52:22.677Z,95551.41
2023-05-12T05:53:24.323Z,95550.34
2023-05-12T05:54:26.853Z,95547.16
2023-05-12T05:55:28.449Z,95553.00
2023-05-12T05:56:31.658Z,95551.72
2023-05-12T05:57:33.467Z,95548.44
2023-05-12T05:58:35.292Z,95551.72
2023-05-12T05:59:38.744Z,95556.41
2023-05-12T06:00:40.382Z,95552.84
2023-05-12T06:01:41.955Z,95553.53
2023-05-12T06:02:44.512Z,95555.81
2023-05-12T06:03:50.074Z,95558.91
2023-05-12T06:04:52.492Z,95556.31
2023-05-12T06:05:54.181Z,95551.59
2023-05-12T06:06:56.151Z,95553.88
2023-05-12T06:07:57.718Z,95558.00
2023-05-12T06:09:00.655Z,95558.47
2023-05-12T06:10:02.273Z,95560.19
2023-05-12T06:11:04.035Z,95563.47
2023-05-12T06:12:06.651Z,95558.22
2023-05-12T06:13:08.302Z,95559.81
2023-05-12T06:14:10.049Z,95562.22
2023-05-12T06:15:11.993Z,95552.97
2023-05-12T06:16:13.618Z,95555.13
2023-05-12T06:17:15.365Z,95556.41
2023-05-12T06:18:17.391Z,95559.94
2023-05-12T06:19:19.294Z,95562.69
2023-05-12T06:20:23.325Z,95557.19
2023-05-12T06:21:25.337Z,95557.28
2023-05-12T06:22:28.125Z,95561.75
2023-05-12T06:23:30.124Z,95559.00
2023-05-12T06:24:32.003Z,95562.44
2023-05-12T06:25:33.809Z,95567.34
2023-05-12T06:26:36.732Z,95553.53
2023-05-12T06:27:38.574Z,95563.44
2023-05-12T06:28:41.054Z,95569.16
2023-05-12T06:29:43.023Z,95566.91
2023-05-12T06:30:44.944Z,95569.50
2023-05-12T06:31:47.220Z,95568.91
2023-05-12T06:32:50.854Z,95568.09
2023-05-12T06:33:52.754Z,95564.56
2023-05-12T06:34:54.567Z,95569.03
2023-05-12T06:35:56.271Z,95567.91
2023-05-12T06:36:57.981Z,95569.63
2023-05-12T06:37:59.622Z,95570.66
2023-05-12T06:39:01.396Z,95572.16
2023-05-12T06:40:03.243Z,95567.81
2023-05-12T06:41:05.759Z,95567.56
2023-05-12T06:42:07.416Z,95570.69
2023-05-12T06:43:15.573Z,95568.97
2023-05-12T06:44:19.670Z,95577.28
2023-05-12T06:45:26.558Z,95566.34
2023-05-12T06:46:28.497Z,95571.69
2023-05-12T06:47:30.178Z,95569.06
2023-05-12T06:48:32.286Z,95571.81
2023-05-12T06:49:37.002Z,95572.72
2023-05-12T06:50:38.600Z,95572.25
2023-05-12T06:51:40.226Z,95574.53
2023-05-12T06:52:45.526Z,95574.53
2023-05-12T06:53:47.139Z,95569.72
2023-05-12T06:54:48.717Z,95576.13
2023-05-12T06:55:51.136Z,95573.16
2023-05-12T06:56:52.711Z,95571.69
2023-05-12T06:57:56.022Z,95572.94
2023-05-12T06:59:02.586Z,95566.31
2023-05-12T07:00:05.008Z,95575.97
2023-05-12T07:01:06.525Z,95570.41
2023-05-12T07:02:08.205Z,95574.50
2023-05-12T07:03:10.340Z,95577.00
2023-05-12T07:04:12.135Z,95572.78
2023-05-12T07:05:13.824Z,95580.34
2023-05-12T07:06:15.421Z,95576.53
2023-05-12T07:07:17.161Z,95579.47
2023-05-12T07:08:18.796Z,95576.28
2023-05-12T07:09:20.363Z,95582.88
2023-05-12T07:10:22.053Z,95581.66
2023-05-12T07:11:23.718Z,95584.63
2023-05-12T07:12:25.488Z,95580.00
2023-05-12T07:13:27.130Z,95580.00
2023-05-12T07:14:28.732Z,95580.06
2023-05-12T07:15:32.604Z,95574.25
2023-05-12T07:16:34.655Z,95581.13
2023-05-12T07:17:36.369Z,95583.28
2023-05-12T07:18:38.245Z,95586.50
2023-05-12T07:19:40.196Z,95577.59
2023-05-12T07:20:41.924Z,95580.53
2023-05-12T07:21:43.712Z,95579.25
2023-05-12T07:22:45.454Z,95573.66
2023-05-12T07:23:47.041Z,95577.31
2023-05-12T07:24:48.679Z,95573.16
2023-05-12T07:25:50.346Z,95575.16
2023-05-12T07:26:52.084Z,95582.47
2023-05-12T07:27:53.823Z,95574.34
2023-05-12T07:28:55.461Z,95577.09
2023-05-12T07:29:57.031Z,95577.22
2023-05-12T07:30:59.510Z,95575.78
2023-05-12T07:32:01.114Z,95579.53
2023-05-12T07:33:02.736Z,95579.72
2023-05-12T07:34:04.355Z,95574.22
2023-05-12T07:35:06.608Z,95581.63
2023-05-12T07:36:09.037Z,95573.56
2023-05-12T07:37:10.486Z,95575.31
2023-05-12T07:38:12.096Z,95577.38
2023-05-12T07:39:15.098Z,95577.66
2023-05-12T07:40:16.797Z,95572.72
2023-05-12T07:41:18.794Z,95579.09
2023-05-12T07:42:20.434Z,95574.81
2023-05-12T07:43:22.062Z,95574.81
2023-05-12T07:44:24.115Z,95576.06
2023-05-12T07:45:25.920Z,95580.31
2023-05-12T07:46:27.612Z,95582.72
2023-05-12T07:47:29.414Z,95578.53
2023-05-12T07:48:31.142Z,95570.91
2023-05-12T07:49:33.045Z,95575.06
2023-05-12T07:50:34.619Z,95571.84
2023-05-12T07:51:36.329Z,95571.44
2023-05-12T07:52:47.017Z,95578.81
2023-05-12T07:53:48.693Z,95570.41
2023-05-12T07:54:50.424Z,95574.78
2023-05-12T07:55:51.982Z,95579.00
2023-05-12T07:56:53.648Z,95576.88
2023-05-12T07:57:55.408Z,95579.38
2023-05-12T07:58:57.172Z,95586.00
2023-05-12T07:59:59.619Z,95579.72
2023-05-12T08:01:05.899Z,95583.16
2023-05-12T08:02:08.084Z,95582.09
2023-05-12T08:03:09.784Z,95571.56
2023-05-12T08:04:11.881Z,95574.00
2023-05-12T08:05:13.984Z,95571.16
2023-05-12T08:06:15.759Z,95573.13
2023-05-12T08:07:17.381Z,95570.22
2023-05-12T08:08:19.309Z,95568.63
2023-05-12T08:09:21.181Z,95566.66
2023-05-12T08:10:26.626Z,95575.72
2023-05-12T08:11:28.377Z,95572.84
2023-05-12T08:12:29.966Z,95568.94
2023-05-12T08:13:32.978Z,95566.63
2023-05-12T08:14:34.608Z,95563.25
2023-05-12T08:15:36.369Z,95567.53
2023-05-12T08:16:38.014Z,95572.78
2023-05-12T08:17:40.001Z,95576.41
2023-05-12T08:18:41.993Z,95572.78
2023-05-12T08:19:43.595Z,95568.63
2023-05-12T08:20:45.433Z,95568.28
2023-05-12T08:21:47.117Z,95569.59
2023-05-12T08:22:50.867Z,95573.88
2023-05-12T08:23:52.641Z,95576.28
2023-05-12T08:24:54.247Z,95570.31
2023-05-12T08:25:55.941Z,95569.44
2023-05-12T08:26:57.480Z,95574.91
2023-05-12T08:28:00.026Z,95577.78
2023-05-12T08:29:01.785Z,95573.34
2023-05-12T08:30:03.645Z,95577.59
2023-05-12T08:31:05.416Z,95571.94
2023-05-12T08:32:07.355Z,95579.53
2023-05-12T08:33:09.152Z,95577.41
2023-05-12T08:34:11.334Z,95574.22
2023-05-12T08:35:13.542Z,95583.72
2023-05-12T08:36:15.275Z,95579.88
2023-05-12T08:37:17.000Z,95584.81
2023-05-12T08:38:18.696Z,95581.91
2023-05-12T08:39:21.051Z,95582.91
2023-05-12T08:40:24.143Z,95583.34
2023-05-12T08:41:53.807Z,95582.47
2023-05-12T08:43:13.134Z,95583.69
2023-05-12T08:44:15.848Z,95583.44
2023-05-12T08:45:18.204Z,95585.66
2023-05-12T08:46:20.497Z,95584.41
2023-05-12T08:47:23.013Z,95579.69
2023-05-12T08:48:28.178Z,95589.25
2023-05-12T08:49:31.870Z,95582.25
2023-05-12T08:50:35.972Z,95588.66
2023-05-12T08:51:38.446Z,95587.06
2023-05-12T08:52:39.922Z,95581.94
2023-05-12T08:53:42.395Z,95584.06
2023-05-12T08:54:55.054Z,95586.19
2023-05-12T08:57:09.549Z,95585.66
2023-05-12T08:57:21.753Z,95584.88
2023-05-12T08:58:33.956Z,95588.72
2023-05-12T08:59:44.517Z,95586.00
2023-05-12T09:00:48.044Z,95574.22
2023-05-12T09:01:50.873Z,95579.69
2023-05-12T09:02:54.719Z,95583.06
2023-05-12T09:03:56.595Z,95577.47
2023-05-12T09:04:58.467Z,95580.31
2023-05-12T09:06:01.113Z,95582.97
2023-05-12T09:07:04.145Z,95581.31
2023-05-12T09:08:06.711Z,95576.69
2023-05-12T09:09:08.448Z,95582.63
2023-05-12T09:10:29.832Z,95579.69
2023-05-12T09:11:35.776Z,95580.38
2023-05-12T09:12:38.092Z,95575.44
2023-05-12T09:13:54.835Z,95574.00
2023-05-12T09:15:10.283Z,95571.75
2023-05-12T09:16:13.235Z,95576.19
2023-05-12T09:17:15.051Z,95582.53
2023-05-12T09:18:16.649Z,95585.03
2023-05-12T09:19:21.479Z,95579.19
2023-05-12T09:20:31.313Z,95582.50
2023-05-12T09:21:34.197Z,95582.75
2023-05-12T09:22:35.954Z,95582.25
2023-05-12T09:23:37.651Z,95581.16
2023-05-12T09:24:40.485Z,95585.38
2023-05-12T09:25:42.105Z,95583.78
2023-05-12T09:26:49.947Z,95580.66
2023-05-12T09:27:55.062Z,95586.31
2023-05-12T09:29:08.482Z,95585.16
2023-05-12T09:30:11.742Z,95586.84
2023-05-12T09:31:22.566Z,95588.06
2023-05-12T09:32:33.032Z,95582.41
2023-05-12T09:33:36.745Z,95585.50
2023-05-12T09:34:41.214Z,95582.25
2023-05-12T09:35:44.678Z,95587.41
2023-05-12T09:36:58.104Z,95583.16
2023-05-12T09:38:08.846Z,95589.19
2023-05-12T09:39:10.495Z,95591.34
2023-05-12T09:40:13.793Z,95591.56
2023-05-12T09:41:22.834Z,95595.13
2023-05-12T09:42:29.636Z,95585.00
2023-05-12T09:43:31.436Z,95595.41
2023-05-12T09:44:33.381Z,95594.88
2023-05-12T09:45:36.449Z,95600.56
2023-05-12T09:46:39.857Z,95588.66
2023-05-12T09:47:41.598Z,95588.78
2023-05-12T09:48:43.275Z,95593.25
2023-05-12T09:49:46.958Z,95584.75
2023-05-12T09:50:50.550Z,95593.78
2023-05-12T09:51:59.050Z,95591.63
2023-05-12T09:53:00.737Z,95591.25
2023-05-12T09:54:02.366Z,95589.22
2023-05-12T09:55:12.074Z,95592.72
2023-05-12T09:56:14.308Z,95585.16
2023-05-12T09:57:17.080Z,95591.22
2023-05-12T09:58:20.460Z,95586.16
2023-05-12T09:59:26.787Z,95587.41
2023-05-12T10:00:46.158Z,95594.75
2023-05-12T10:01:50.317Z,95600.34
2023-05-12T10:02:52.642Z,95594.25
2023-05-12T10:03:56.715Z,95594.13
2023-05-12T10:05:01.305Z,95591.66
2023-05-12T10:06:05.016Z,95596.34
2023-05-12T10:07:09.805Z,95601.34
2023-05-12T10:08:12.025Z,95602.66
2023-05-12T10:09:20.169Z,95592.81
2023-05-12T10:10:23.929Z,95603.34
2023-05-12T10:11:25.911Z,95596.81
2023-05-12T10:12:27.507Z,95592.53
2023-05-12T10:13:29.267Z,95602.09
2023-05-12T10:14:31.723Z,95595.03
2023-05-12T10:15:33.806Z,95600.78
2023-05-12T10:16:36.317Z,95597.53
2023-05-12T10:17:40.207Z,95599.19
2023-05-12T10:18:44.548Z,95600.38
2023-05-12T10:19:47.357Z,95596.28
2023-05-12T10:20:49.014Z,95605.13
2023-05-12T10:21:50.762Z,95606.28
2023-05-12T10:22:53.380Z,95604.78
2023-05-12T10:23:55.159Z,95608.84
2023-05-12T10:24:57.494Z,95606.50
2023-05-12T10:26:02.070Z,95605.81
2023-05-12T10:27:06.324Z,95610.16
2023-05-12T10:28:08.882Z,95606.94
2023-05-12T10:29:11.272Z,95600.84
2023-05-12T10:30:13.032Z,95611.81
2023-05-12T10:31:15.080Z,95612.91
2023-05-12T10:32:16.814Z,95602.97
2023-05-12T10:33:19.111Z,95615.03
2023-05-12T10:34:21.569Z,95600.38
2023-05-12T10:35:31.566Z,95602.44
2023-05-12T10:36:47.749Z,95603.97
2023-05-12T10:37:49.747Z,95603.16
2023-05-12T10:38:51.492Z,95606.03
2023-05-12T10:39:53.177Z,95603.66
2023-05-12T10:41:06.006Z,95609.47
2023-05-12T10:42:08.605Z,95607.66
2023-05-12T10:43:21.663Z,95617.22
2023-05-12T10:44:29.530Z,95609.81
2023-05-12T10:45:36.665Z,95607.19
2023-05-12T10:46:38.576Z,95609.72
2023-05-12T10:47:41.670Z,95608.94
2023-05-12T10:48:56.656Z,95609.16
2023-05-12T10:49:59.614Z,95611.53
2023-05-12T10:51:09.083Z,95615.84
2023-05-12T10:52:12.737Z,95612.22
2023-05-12T10:53:14.483Z,95611.63
2023-05-12T10:54:21.344Z,95609.09
2023-05-12T10:55:35.011Z,95612.16
2023-05-12T10:56:39.631Z,95613.69
2023-05-12T10:57:52.056Z,95614.13
2023-05-12T10:59:17.648Z,95611.72
2023-05-12T11:00:23.318Z,95613.88
2023-05-12T11:01:26.236Z,95610.25
2023-05-12T11:02:33.823Z,95611.84
2023-05-12T11:03:37.271Z,95617.34
2023-05-12T11:04:48.307Z,95616.41
2023-05-12T11:06:05.198Z,95615.16
2023-05-12T11:07:09.779Z,95620.38
2023-05-12T11:08:12.018Z,95616.41
2023-05-12T11:09:15.264Z,95617.69
2023-05-12T11:10:18.140Z,95618.63
2023-05-12T11:11:22.400Z,95613.94
2023-05-12T11:12:26.722Z,95619.22
2023-05-12T11:13:29.643Z,95620.34
2023-05-12T11:14:31.672Z,95621.78
2023-05-12T11:15:33.347Z,95616.13
2023-05-12T11:16:42.013Z,95623.03
2023-05-12T11:17:43.742Z,95623.13
2023-05-12T11:18:45.506Z,95627.47
2023-05-12T11:19:49.514Z,95627.50
2023-05-12T11:20:51.506Z,95629.34
2023-05-12T11:21:53.214Z,95621.09
2023-05-12T11:22:55.055Z,95625.91
2023-05-12T11:23:57.617Z,95629.69
2023-05-12T11:25:09.255Z,95632.19
2023-05-12T11:26:17.566Z,95632.66
2023-05-12T11:27:20.856Z,95627.88
2023-05-12T11:28:22.675Z,95627.53
2023-05-12T11:29:24.277Z,95632.19
2023-05-12T11:30:25.895Z,95627.31
2023-05-12T11:31:27.559Z,95626.59
2023-05-12T11:32:30.456Z,95628.72
2023-05-12T11:33:32.265Z,95628.31
2023-05-12T11:34:33.997Z,95625.41
2023-05-12T11:35:35.845Z,95628.56
2023-05-12T11:36:38.650Z,95626.00
2023-05-12T11:37:41.147Z,95627.03
2023-05-12T11:38:49.296Z,95629.38
2023-05-12T11:39:52.975Z,95624.88
2023-05-12T11:40:54.678Z,95624.06
2023-05-12T11:42:11.621Z,95620.53
2023-05-12T11:43:15.281Z,95627.66
2023-05-12T11:44:17.307Z,95624.63
2023-05-12T11:45:26.470Z,95625.22
2023-05-12T11:46:29.195Z,95629.97
2023-05-12T11:47:30.973Z,95627.75
2023-05-12T11:48:58.542Z,95624.28
2023-05-12T11:50:00.255Z,95625.59
2023-05-12T11:51:02.574Z,95618.97
2023-05-12T11:52:05.085Z,95629.25
2023-05-12T11:53:14.913Z,95618.88
2023-05-12T11:54:17.011Z,95626.75
2023-05-12T11:55:23.994Z,95622.13
2023-05-12T11:56:26.766Z,95621.56
2023-05-12T11:57:33.616Z,95629.88
2023-05-12T11:58:35.752Z,95625.34
2023-05-12T11:59:37.449Z,95623.56
2023-05-12T12:00:39.635Z,95631.81
2023-05-12T12:01:46.689Z,95632.09
2023-05-12T12:02:48.584Z,95638.31
2023-05-12T12:03:52.889Z,95637.75
2023-05-12T12:04:54.953Z,95630.31
2023-05-12T12:06:04.338Z,95632.78
2023-05-12T12:07:07.099Z,95623.41
2023-05-12T12:08:16.814Z,95629.06
2023-05-12T12:09:18.687Z,95625.53
2023-05-12T12:10:20.548Z,95625.16
2023-05-12T12:11:28.403Z,95628.31
2023-05-12T12:12:30.404Z,95623.31
2023-05-12T12:13:32.094Z,95629.41
2023-05-12T12:14:38.452Z,95632.00
2023-05-12T12:15:40.428Z,95632.59
2023-05-12T12:16:42.388Z,95631.41
2023-05-12T12:17:44.082Z,95632.06
2023-05-12T12:18:45.973Z,95634.47
2023-05-12T12:19:48.527Z,95624.75
2023-05-12T12:20:50.325Z,95630.88
2023-05-12T12:21:52.242Z,95631.06
2023-05-12T12:22:54.290Z,95628.84